Siletz, Oregon
Current Conditions -  °F | °C
As of 10:35 AM on Wednesday 26 Nov 2014 (Local Time) from KONP Reporting Station
Clear Clear  
Wind Chill: 59°   Ceiling: Unl
Heat Index: 59°   Visibility: 10mi
Dew Point: 54°   Wind: 3mph
Humidity: 82%   Direction: 150°SSE
Pressure: 30.18"   Gusts: NA
Location:  44.72°N, 123.92°W
Report Text: KONP 261835Z AUTO 15003KT 10SM CLR 15/12 A3018 RMK AO2
Loading
Personal Weather Stations






























Interactive Weather Map New forecast layout! Learn more

10-Day Weather Forecast

Advertisements
Track Severe Weather on mobile